Map

Track Data

SID SEASON NUMBER BASIN SUBBASIN NAME ISO_TIME NATURE LAT LON WMO_WIND WMO_PRES WMO_AGENCY TRACK_TYPE DIST2LAND LANDFALL IFLAG USA_AGENCY USA_ATCF_ID USA_LAT USA_LON USA_RECORD USA_STATUS USA_WIND USA_PRES USA_SSHS USA_R34_NE USA_R34_SE USA_R34_SW USA_R34_NW USA_R50_NE USA_R50_SE USA_R50_SW USA_R50_NW USA_R64_NE USA_R64_SE USA_R64_SW USA_R64_NW USA_POCI USA_ROCI USA_RMW USA_EYE TOKYO_LAT TOKYO_LON TOKYO_GRADE TOKYO_WIND TOKYO_PRES TOKYO_R50_DIR TOKYO_R50_LONG TOKYO_R50_SHORT TOKYO_R30_DIR TOKYO_R30_LONG TOKYO_R30_SHORT TOKYO_LAND CMA_LAT CMA_LON CMA_CAT CMA_WIND CMA_PRES HKO_LAT HKO_LON HKO_CAT HKO_WIND HKO_PRES NEWDELHI_LAT NEWDELHI_LON NEWDELHI_GRADE NEWDELHI_WIND NEWDELHI_PRES NEWDELHI_CI NEWDELHI_DP NEWDELHI_POCI REUNION_LAT REUNION_LON REUNION_TYPE REUNION_WIND REUNION_PRES REUNION_TNUM REUNION_CI REUNION_RMW REUNION_R34_NE REUNION_R34_SE REUNION_R34_SW REUNION_R34_NW REUNION_R50_NE REUNION_R50_SE REUNION_R50_SW REUNION_R50_NW REUNION_R64_NE REUNION_R64_SE REUNION_R64_SW REUNION_R64_NW BOM_LAT BOM_LON BOM_TYPE BOM_WIND BOM_PRES BOM_TNUM BOM_CI BOM_RMW BOM_R34_NE BOM_R34_SE BOM_R34_SW BOM_R34_NW BOM_R50_NE BOM_R50_SE BOM_R50_SW BOM_R50_NW BOM_R64_NE BOM_R64_SE BOM_R64_SW BOM_R64_NW BOM_ROCI BOM_POCI BOM_EYE BOM_POS_METHOD BOM_PRES_METHOD NADI_LAT NADI_LON NADI_CAT NADI_WIND NADI_PRES WELLINGTON_LAT WELLINGTON_LON WELLINGTON_WIND WELLINGTON_PRES DS824_LAT DS824_LON DS824_STAGE DS824_WIND DS824_PRES TD9636_LAT TD9636_LON TD9636_STAGE TD9636_WIND TD9636_PRES TD9635_LAT TD9635_LON TD9635_WIND TD9635_PRES TD9635_ROCI NEUMANN_LAT NEUMANN_LON NEUMANN_CLASS NEUMANN_WIND NEUMANN_PRES MLC_LAT MLC_LON MLC_CLASS MLC_WIND MLC_PRES USA_GUST BOM_GUST BOM_GUST_PER REUNION_GUST REUNION_GUST_PER USA_SEAHGT USA_SEARAD_NE USA_SEARAD_SE USA_SEARAD_SW USA_SEARAD_NW STORM_SPEED STORM_DIR
1970324N05143 1970 148 WP MM RUTH 1970-11-20 00:00:00 NR 5.10000 143.000 main 886 870 __________O___ -1 5.10000 143.000 0 12 270
1970324N05143 1970 148 WP MM RUTH 1970-11-20 03:00:00 NR 5.09873 142.406 main 870 846 __________P___ -1 5.09873 142.406 0 12 270
1970324N05143 1970 148 WP MM RUTH 1970-11-20 06:00:00 NR 5.09778 141.800 main 846 821 __________P___ -1 5.09778 141.800 0 12 270
1970324N05143 1970 148 WP MM RUTH 1970-11-20 09:00:00 NR 5.09795 141.169 main 821 793 __________P___ -1 5.09795 141.169 0 13 270
1970324N05143 1970 148 WP MM RUTH 1970-11-20 12:00:00 NR 5.10000 140.500 main 793 771 __________O___ -1 5.10000 140.500 0 14 270
1970324N05143 1970 148 WP MM RUTH 1970-11-20 15:00:00 NR 5.10400 139.786 main 771 750 __________P___ -1 5.10400 139.786 0 15 270
1970324N05143 1970 148 WP MM RUTH 1970-11-20 18:00:00 NR 5.10740 139.037 main 745 713 __________P___ -1 5.10740 139.037 0 15 270
1970324N05143 1970 148 WP MM RUTH 1970-11-20 21:00:00 NR 5.10708 138.270 main 713 683 __________P___ -1 5.10708 138.270 0 15 270
1970324N05143 1970 148 WP MM RUTH 1970-11-21 00:00:00 NR 5.10000 137.500 main 683 663 __________O___ -1 5.10000 137.500 0 15 269
1970324N05143 1970 148 WP MM RUTH 1970-11-21 03:00:00 NR 5.07802 136.730 main 661 651 __________P___ -1 5.07802 136.730 0 15 268
1970324N05143 1970 148 WP MM RUTH 1970-11-21 06:00:00 NR 5.04990 135.963 main 640 638 __________P___ -1 5.04990 135.963 0 15 268
1970324N05143 1970 148 WP MM RUTH 1970-11-21 09:00:00 NR 5.02181 135.214 main 639 627 __________P___ -1 5.02181 135.214 0 15 268
1970324N05143 1970 148 WP MM RUTH 1970-11-21 12:00:00 NR 5.00000 134.500 main 627 613 __________O___ -1 5.00000 134.500 0 14 269
1970324N05143 1970 148 WP MM RUTH 1970-11-21 15:00:00 NR 4.99248 133.835 main 611 572 __________P___ -1 4.99248 133.835 0 13 270
1970324N05143 1970 148 WP MM RUTH 1970-11-21 18:00:00 NR 4.99208 133.205 main 572 515 __________P___ -1 4.99208 133.205 0 12 270
1970324N05143 1970 148 WP MM RUTH 1970-11-21 21:00:00 NR 4.99565 132.598 main 515 461 __________P___ -1 4.99565 132.598 0 12 270
1970324N05143 1970 148 WP MM RUTH 1970-11-22 00:00:00 NR 5.00000 132.000 main 461 418 __________O___ -1 5.00000 132.000 0 12 270
1970324N05143 1970 148 WP MM RUTH 1970-11-22 03:00:00 NR 4.99961 131.421 main 410 371 __________P___ -1 4.99961 131.421 0 12 270
1970324N05143 1970 148 WP MM RUTH 1970-11-22 06:00:00 NR 4.99943 130.845 main 364 331 __________P___ -1 4.99943 130.845 0 12 270
1970324N05143 1970 148 WP MM RUTH 1970-11-22 09:00:00 NR 4.99955 130.246 main 325 297 __________P___ -1 4.99955 130.246 0 12 270
1970324N05143 1970 148 WP MM RUTH 1970-11-22 12:00:00 NR 5.00000 129.600 main 297 281 __________O___ -1 5.00000 129.600 0 14 270
1970324N05143 1970 148 WP MM RUTH 1970-11-22 15:00:00 NR 4.99579 128.891 main 281 265 __________P___ -1 4.99579 128.891 0 15 270
1970324N05143 1970 148 WP MM RUTH 1970-11-22 18:00:00 NR 4.99225 128.132 main 255 197 __________P___ -1 4.99225 128.132 0 16 270
1970324N05143 1970 148 WP MM RUTH 1970-11-22 21:00:00 NR 4.99258 127.332 main 189 139 __________P___ -1 4.99258 127.332 0 16 270
1970324N05143 1970 148 WP MM RUTH 1970-11-23 00:00:00 NR 5.00000 126.500 main 139 75 __________O___ -1 5.00000 126.500 0 17 270
1970324N05143 1970 148 WP MM RUTH 1970-11-23 03:00:00 NR 4.98526 125.641 main 70 67 __________P___ -1 4.98526 125.641 0 17 269
1970324N05143 1970 148 WP MM RUTH 1970-11-23 06:00:00 NR 4.98245 124.757 main 87 87 __________P___ -1 4.98245 124.757 0 18 271
1970324N05143 1970 148 WP MM RUTH 1970-11-23 09:00:00 NR 5.01338 123.869 main 130 130 __________P___ -1 5.01338 123.869 0 18 274
1970324N05143 1970 148 WP MM RUTH 1970-11-23 12:00:00 NR 5.10000 123.000 main 182 182 __________O___ -1 5.10000 123.000 0 17 277
1970324N05143 1970 148 WP MM RUTH 1970-11-23 15:00:00 NR 5.23049 122.182 main 190 180 __________P___ -1 5.23049 122.182 0 16 281
1970324N05143 1970 148 WP MM RUTH 1970-11-23 18:00:00 NR 5.42189 121.384 main 189 147 __________P___ -1 5.42189 121.384 0 16 286
1970324N05143 1970 148 WP MM RUTH 1970-11-23 21:00:00 NR 5.67735 120.594 main 147 86 __________P___ -1 5.67735 120.594 0 17 290
1970324N05143 1970 148 WP MM RUTH 1970-11-24 00:00:00 NR 6.00000 119.800 main 87 80 __________O___ -1 6.00000 119.800 0 18 294
1970324N05143 1970 148 WP MM RUTH 1970-11-24 03:00:00 NR 6.40987 118.930 main 85 71 __________P___ -1 6.40987 118.930 0 19 297
1970324N05143 1970 148 WP MM RUTH 1970-11-24 06:00:00 NR 6.87789 118.061 main 71 40 __________P___ -1 6.87789 118.061 0 19 299
1970324N05143 1970 148 WP MM RUTH 1970-11-24 09:00:00 NR 7.35690 117.236 main 56 56 __________P___ -1 7.35690 117.236 0 18 301
1970324N05143 1970 148 WP MM RUTH 1970-11-24 12:00:00 NR 7.80000 116.500 main 95 95 __________O___ -1 7.80000 116.500 1 16 301
1970324N05143 1970 148 WP MM RUTH 1970-11-24 15:00:00 NR 8.16670 115.886 main 143 143 __________P___ -1 8.16670 115.886 1 13 302
1970324N05143 1970 148 WP MM RUTH 1970-11-24 18:00:00 NR 8.48902 115.365 main 199 199 __________P___ -1 8.48902 115.365 1 11 302
1970324N05143 1970 148 WP MM RUTH 1970-11-24 21:00:00 NR 8.76689 114.911 main 259 259 __________P___ -1 8.76689 114.911 1 10 301
1970324N05143 1970 148 WP MM RUTH 1970-11-25 00:00:00 NR 9.00000 114.500 main 307 307 __________O___ -1 9.00000 114.500 1 9 298
1970324N05143 1970 148 WP MM RUTH 1970-11-25 03:00:00 NR 9.20104 114.068 main 355 355 __________P___ -1 9.20104 114.068 1 9 294
1970324N05143 1970 148 WP MM RUTH 1970-11-25 06:00:00 NR 9.35977 113.675 main 404 404 __________P___ -1 9.35977 113.675 1 8 291
1970324N05143 1970 148 WP MM RUTH 1970-11-25 09:00:00 NR 9.48862 113.319 main 449 438 __________P___ -1 9.48862 113.319 1 3 301
1970324N05143 1970 148 WP MM RUTH 1970-11-25 12:00:00 TS 9.52000 113.400 main 438 438 __O_______O___ -1 9.20000 115.000 0 19 1005 9.60000 113.000 1 1 0
1970324N05143 1970 148 WP MM RUTH 1970-11-25 15:00:00 TS 9.58772 113.328 main 452 452 __P_______P___ -1 9.30257 114.515 0 21 1002 9.73029 112.734 1 3 298
1970324N05143 1970 148 WP MM RUTH 1970-11-25 18:00:00 TS 9.65402 113.143 main 477 462 __O_______P___ -1 9.40000 114.000 1 23 1000 9.84454 112.500 1 5 285
1970324N05143 1970 148 WP MM RUTH 1970-11-25 21:00:00 TS 9.70827 112.854 main 462 437 __P_______P___ -1 9.48001 113.443 1 23 1000 9.93654 112.266 1 5 288
1970324N05143 1970 148 WP MM RUTH 1970-11-26 00:00:00 TS 9.82000 112.640 1004 tokyo main 428 400 _OOO______O___ -1 9.80000 113.400 2 1004 0 0 0 9.50000 112.900 1 23 1000 10.4000 113.400 TD 25 1004 10.0000 112.000 1 6 282
1970324N05143 1970 148 WP MM RUTH 1970-11-26 03:00:00 TS 9.82675 112.289 main 400 363 _PPP______P___ -1 9.75773 112.837 2 1002 0 0 9.42238 112.435 1 26 999 10.2354 112.702 TD 25 1003 10.0613 111.661 1 7 267
1970324N05143 1970 148 WP MM RUTH 1970-11-26 06:00:00 TS 9.78287 111.882 1000 tokyo main 363 333 _OOO______P___ -1 9.70000 112.300 2 1000 0 0 0 9.30000 112.000 1 29 998 10.1000 112.100 TD 25 1002 10.0900 111.288 1 8 263
1970324N05143 1970 148 WP MM RUTH 1970-11-26 09:00:00 TS 9.72396 111.479 main 333 298 _PPP______P___ -1 9.61486 111.800 2 1000 0 0 9.19988 111.565 1 29 998 10.0073 111.655 TD 25 1001 10.0738 110.896 1 8 259
1970324N05143 1970 148 WP MM RUTH 1970-11-26 12:00:00 TS 9.62500 111.050 1000 tokyo main 305 275 _OOO______O___ -1 9.50000 111.300 2 1000 0 0 0 9.10000 111.100 1 29 998 9.90000 111.300 TD 25 1000 10.0000 110.500 1 9 254
1970324N05143 1970 148 WP MM RUTH 1970-11-26 15:00:00 TS 9.47769 110.594 main 275 265 _PPP______P___ -1 9.35748 110.750 2 1000 0 0 8.99257 110.542 1 29 998 9.70739 110.958 TD 25 999 9.85331 110.125 1 10 251
1970324N05143 1970 148 WP MM RUTH 1970-11-26 18:00:00 TS 9.31308 110.137 1000 tokyo main 262 244 _OOO______P___ -1 9.20000 110.200 2 1000 0 0 0 8.90000 110.000 1 29 998 9.50000 110.600 TD 25 999 9.65233 109.750 1 9 250
1970324N05143 1970 148 WP MM RUTH 1970-11-26 21:00:00 TS 9.17054 109.718 main 244 234 _PPP______P___ -1 9.04240 109.693 2 999 0 0 8.84985 109.585 1 29 998 9.36474 110.218 TD 25 998 9.42519 109.375 1 9 251
1970324N05143 1970 148 WP MM RUTH 1970-11-27 00:00:00 TS 9.02500 109.275 998 tokyo main 237 219 _OOO______O___ -1 8.90000 109.200 2 998 0 0 0 8.80000 109.200 1 29 998 9.20000 109.700 TD 25 998 9.20000 109.000 2 10 251
1970324N05143 1970 148 WP MM RUTH 1970-11-27 03:00:00 TS 8.84070 108.759 main 230 217 _PPP______P___ -1 8.79990 108.708 2 997 0 0 8.69978 108.802 1 33 997 8.87790 108.900 TD 25 998 8.98520 108.625 2 11 252
1970324N05143 1970 148 WP MM RUTH 1970-11-27 06:00:00 TS 8.69608 108.250 996 tokyo main 208 172 OOOO_____OPO__ jtwc_wp WP241970 8.80000 108.400 40 0 8.70000 108.200 9 996 0 0 0 8.60000 108.300 2 38 996 8.60000 108.100 TD 25 998 8.80000 108.400 TC 40 8.78236 108.250 2 8.80000 108.400 40 996 180 11 256
1970324N05143 1970 148 WP MM RUTH 1970-11-27 09:00:00 TS 8.59109 107.711 main 172 142 PPPP_____PPP__ WP241970 8.65047 107.800 40 0 8.55748 107.650 9 997 0 0 8.54281 107.550 2 38 996 8.53226 107.563 TD 25 998 8.65047 107.800 TC 40 8.61333 107.875 2 8.65047 107.800 40 996 180 11 259
1970324N05143 1970 148 WP MM RUTH 1970-11-27 12:00:00 TS 8.48636 107.164 998 tokyo main 142 127 OOOO_____OOO__ jtwc_wp WP241970 8.50000 107.200 40 0 8.40000 107.100 9 998 0 0 0 8.50000 106.800 2 38 996 8.60000 107.200 TD 25 998 8.50000 107.200 TC 40 8.50000 107.500 2 8.50000 107.200 40 996 180 10 260
1970324N05143 1970 148 WP MM RUTH 1970-11-27 15:00:00 TS 8.40606 106.677 main 127 109 PPP______PPP__ WP241970 8.45038 106.650 32 -1 8.24238 106.600 9 999 0 0 8.44226 106.305 2 38 997 TD 8.45038 106.650 TC 32 8.46707 107.166 2 8.45038 106.650 32 997 210 9 261
1970324N05143 1970 148 WP MM RUTH 1970-11-27 18:00:00 TS 8.34382 106.240 1000 tokyo main 113 78 OOO______OPO__ jtwc_wp WP241970 8.40000 106.100 25 -1 8.10000 106.100 9 1000 0 0 0 8.40000 105.900 2 38 998 8.40000 106.100 TC 25 8.48933 106.825 2 8.40000 106.100 25 998 240 9 263
1970324N05143 1970 148 WP MM RUTH 1970-11-27 21:00:00 TS 8.30148 105.811 main 78 57 _PP_______P___ WP241970 -1 7.97001 105.542 9 1001 0 0 8.39247 105.443 2 33 999 TC 8.54195 106.447 2 9 267
1970324N05143 1970 148 WP MM RUTH 1970-11-28 00:00:00 TS 8.30000 105.333 1002 tokyo main 56 44 _OO_______O___ -1 7.90000 105.000 2 1002 0 0 0 8.40000 105.000 1 29 1000 8.60000 106.000 1 10 271
1970324N05143 1970 148 WP MM RUTH 1970-11-28 03:00:00 TS 8.31609 104.842 main 46 46 _PP_______P___ -1 7.94240 104.535 2 1002 0 0 8.39246 104.585 1 29 1000 8.61340 105.406 1 10 273
1970324N05143 1970 148 WP MM RUTH 1970-11-28 06:00:00 TS 8.34279 104.350 1002 tokyo main 78 78 _OO_______P___ -1 8.00000 104.100 2 1002 0 0 0 8.40000 104.200 1 29 1000 8.62836 104.750 1 10 272
1970324N05143 1970 148 WP MM RUTH 1970-11-28 09:00:00 TS 8.34630 103.867 main 113 113 _PP_______P___ -1 7.94995 103.650 2 1002 0 0 8.43491 103.857 1 29 1001 8.65403 104.094 1 9 271
1970324N05143 1970 148 WP MM RUTH 1970-11-28 12:00:00 TS 8.36667 103.400 1002 tokyo main 160 160 _OO_______O___ -1 7.90000 103.200 2 1002 0 0 0 8.50000 103.500 1 29 1002 8.70000 103.500 1 9 275
1970324N05143 1970 148 WP MM RUTH 1970-11-28 15:00:00 TS 8.42754 102.965 main 203 203 _PP_______P___ -1 7.91998 102.743 2 1003 0 0 8.58494 103.080 1 29 1002 8.77772 103.073 1 9 281
1970324N05143 1970 148 WP MM RUTH 1970-11-28 18:00:00 TS 8.52552 102.538 1004 tokyo main 214 205 _OO_______P___ -1 8.00000 102.300 2 1004 0 0 0 8.70000 102.600 1 29 1002 8.87655 102.712 1 9 285
1970324N05143 1970 148 WP MM RUTH 1970-11-28 21:00:00 TS 8.64988 102.104 main 205 171 _PP_______P___ -1 8.12744 101.892 2 1004 0 0 8.83504 102.050 1 29 1002 8.98715 102.370 1 9 288
1970324N05143 1970 148 WP MM RUTH 1970-11-29 00:00:00 TS 8.80000 101.667 1004 tokyo main 171 133 _OO_______O___ -1 8.30000 101.500 2 1004 0 0 0 9.00000 101.500 1 29 1002 9.10000 102.000 1 9 290
1970324N05143 1970 148 WP MM RUTH 1970-11-29 03:00:00 TS 8.96406 101.229 main 128 101 _PP_______P___ -1 8.47744 101.107 2 1004 0 0 9.20746 101.013 1 24 1002 9.20727 101.566 1 9 289
1970324N05143 1970 148 WP MM RUTH 1970-11-29 06:00:00 TS 9.09259 100.783 1004 tokyo main 101 54 _OO_______P___ -1 8.70000 100.700 2 1004 0 0 0 9.40000 100.600 0 19 1002 9.30862 101.075 1 9 286
1970324N05143 1970 148 WP MM RUTH 1970-11-29 09:00:00 TS 9.22456 100.323 main 54 24 _PP_______P___ -1 8.98505 100.235 2 1003 0 0 9.52252 100.275 0 19 1002 9.40564 100.547 1 9 289
1970324N05143 1970 148 NI BB RUTH 1970-11-29 12:00:00 TS 9.40000 99.8800 main 24 22 _OO_______O___ -1 9.30000 99.8000 2 1002 0 0 0 9.60000 100.000 0 19 1002 9.50000 100.000 1 9 294
1970324N05143 1970 148 NI BB RUTH 1970-11-29 15:00:00 TS 9.60498 99.4675 main 31 10 _P____________ -1 9.60498 99.4675 2 1003 0 0 0 1 8 307
1970324N05143 1970 148 NI BB RUTH 1970-11-29 18:00:00 TS 9.90000 99.2000 main 10 _O____________ -1 9.90000 99.2000 2 1004 0 0 0 1 8 318

Digital Typhoon Data and Search

About IBTrACS Database

This database is a web-friendly format of International Best Track Archive for Climate Stewardship (IBTrACS), a global best track data archive curated by NOAA dating back to 1842.

Updated: 2021-11-26